createdAt,value
2023-09-30T00:00:12.871Z,98393.00
2023-09-30T00:02:39.929Z,98402.00
2023-09-30T00:05:07.936Z,98395.00
2023-09-30T00:07:35.626Z,98396.00
2023-09-30T00:10:04.386Z,98392.00
2023-09-30T00:12:31.625Z,98402.00
2023-09-30T00:14:58.740Z,98403.00
2023-09-30T00:17:25.550Z,98401.00
2023-09-30T00:19:52.419Z,98395.00
2023-09-30T00:22:19.334Z,98405.00
2023-09-30T00:24:46.202Z,98411.00
2023-09-30T00:27:13.367Z,98411.00
2023-09-30T00:29:40.338Z,98405.00
2023-09-30T00:32:07.878Z,98394.00
2023-09-30T00:34:36.329Z,98409.00
2023-09-30T00:37:03.683Z,98399.00
2023-09-30T00:39:32.198Z,98415.00
2023-09-30T00:42:00.005Z,98447.00
2023-09-30T00:44:28.108Z,98452.00
2023-09-30T00:46:58.668Z,98432.00
2023-09-30T00:49:26.654Z,98427.00
2023-09-30T00:51:55.483Z,98429.00
2023-09-30T00:54:26.508Z,98433.00
2023-09-30T00:56:57.065Z,98424.00
2023-09-30T00:59:27.896Z,98411.00
2023-09-30T01:01:58.786Z,98410.00
2023-09-30T01:04:28.552Z,98402.00
2023-09-30T01:06:55.498Z,98399.00
2023-09-30T01:09:22.586Z,98408.00
2023-09-30T01:11:49.655Z,98408.00
2023-09-30T01:14:36.103Z,98408.00
2023-09-30T01:17:03.383Z,98404.00
2023-09-30T01:19:30.601Z,98411.00
2023-09-30T01:22:00.515Z,98411.00
2023-09-30T01:24:39.148Z,98418.00
2023-09-30T01:27:08.086Z,98435.00
2023-09-30T01:29:35.952Z,98414.00
2023-09-30T01:32:02.926Z,98409.00
2023-09-30T01:34:30.016Z,98418.00
2023-09-30T01:36:56.844Z,98438.00
2023-09-30T01:39:23.882Z,98436.00
2023-09-30T01:41:50.776Z,98461.00
2023-09-30T01:44:17.691Z,98469.00
2023-09-30T01:46:44.872Z,98440.00
2023-09-30T01:49:11.734Z,98425.00
2023-09-30T01:51:38.864Z,98420.00
2023-09-30T01:54:05.916Z,98419.00
2023-09-30T01:56:33.173Z,98415.00
2023-09-30T01:59:01.769Z,98430.00
2023-09-30T02:01:28.773Z,98442.00
2023-09-30T02:03:55.829Z,98451.00
2023-09-30T02:06:22.909Z,98462.00
2023-09-30T02:08:49.766Z,98446.00
2023-09-30T02:11:18.016Z,98442.00
2023-09-30T02:13:45.645Z,98434.00
2023-09-30T02:16:14.753Z,98441.00
2023-09-30T02:18:46.088Z,98437.00
2023-09-30T02:21:13.124Z,98446.00
2023-09-30T02:23:40.193Z,98462.00
2023-09-30T02:26:07.221Z,98475.00
2023-09-30T02:28:35.215Z,98473.00
2023-09-30T02:31:02.324Z,98464.00
2023-09-30T02:33:29.373Z,98472.00
2023-09-30T02:35:56.665Z,98468.00
2023-09-30T02:38:23.936Z,98463.00
2023-09-30T02:40:52.773Z,98459.00
2023-09-30T02:43:19.895Z,98463.00
2023-09-30T02:45:47.570Z,98455.00
2023-09-30T02:48:14.864Z,98458.00
2023-09-30T02:50:46.101Z,98441.00
2023-09-30T02:53:16.824Z,98457.00
2023-09-30T02:55:43.928Z,98447.00
2023-09-30T02:58:12.324Z,98442.00
2023-09-30T03:00:40.282Z,98455.00
2023-09-30T03:03:07.378Z,98450.00
2023-09-30T03:05:34.620Z,98470.00
2023-09-30T03:08:02.405Z,98459.00
2023-09-30T03:10:30.111Z,98454.00
2023-09-30T03:13:02.517Z,98451.00
2023-09-30T03:15:33.187Z,98456.00
2023-09-30T03:18:01.008Z,98457.00
2023-09-30T03:20:28.565Z,98461.00
2023-09-30T03:22:55.582Z,98468.00
2023-09-30T03:25:23.362Z,98449.00
2023-09-30T03:27:50.395Z,98452.00
2023-09-30T03:30:20.939Z,98464.00
2023-09-30T03:32:48.495Z,98473.00
2023-09-30T03:35:18.976Z,98465.00
2023-09-30T03:37:48.268Z,98453.00
2023-09-30T03:40:19.941Z,98460.00
2023-09-30T03:42:52.992Z,98449.00
2023-09-30T03:45:20.512Z,98476.00
2023-09-30T03:47:49.225Z,98474.00
2023-09-30T03:50:16.926Z,98489.00
2023-09-30T03:52:49.011Z,98471.00
2023-09-30T03:55:20.227Z,98465.00
2023-09-30T03:57:50.665Z,98454.00
2023-09-30T04:00:21.092Z,98462.00
2023-09-30T04:02:52.379Z,98455.00
2023-09-30T04:05:20.042Z,98453.00
2023-09-30T04:07:47.615Z,98460.00
2023-09-30T04:10:14.589Z,98461.00
2023-09-30T04:12:41.706Z,98463.00
2023-09-30T04:15:12.896Z,98450.00
2023-09-30T04:17:40.107Z,98445.00
2023-09-30T04:20:16.935Z,98457.00
2023-09-30T04:22:49.868Z,98455.00
2023-09-30T04:25:18.851Z,98466.00
2023-09-30T04:27:47.278Z,98458.00
2023-09-30T04:30:16.278Z,98467.00
2023-09-30T04:32:44.447Z,98448.00
2023-09-30T04:35:11.944Z,98458.00
2023-09-30T04:37:39.538Z,98467.00
2023-09-30T04:40:09.501Z,98479.00
2023-09-30T04:42:37.661Z,98466.00
2023-09-30T04:45:08.464Z,98469.00
2023-09-30T04:47:35.391Z,98473.00
2023-09-30T04:50:06.150Z,98470.00
2023-09-30T04:52:33.079Z,98478.00
2023-09-30T04:55:01.082Z,98490.00
2023-09-30T04:57:29.207Z,98476.00
2023-09-30T04:59:56.122Z,98494.00
2023-09-30T05:02:24.216Z,98495.00
2023-09-30T05:04:51.450Z,98499.00
2023-09-30T05:07:18.390Z,98493.00
2023-09-30T05:09:46.107Z,98480.00
2023-09-30T05:12:13.157Z,98481.00
2023-09-30T05:14:40.140Z,98480.00
2023-09-30T05:17:07.473Z,98482.00
2023-09-30T05:19:34.450Z,98486.00
2023-09-30T05:22:02.157Z,98494.00
2023-09-30T05:24:30.432Z,98496.00
2023-09-30T05:26:57.678Z,98498.00
2023-09-30T05:29:24.676Z,98499.00
2023-09-30T05:31:51.576Z,98503.00
2023-09-30T05:34:18.651Z,98511.00
2023-09-30T05:36:45.506Z,98515.00
2023-09-30T05:39:12.708Z,98521.00
2023-09-30T05:41:41.099Z,98512.00
2023-09-30T05:44:10.992Z,98529.00
2023-09-30T05:46:37.837Z,98530.00
2023-09-30T05:49:10.865Z,98541.00
2023-09-30T05:51:38.098Z,98531.00
2023-09-30T05:54:06.321Z,98534.00
2023-09-30T05:56:34.000Z,98513.00
2023-09-30T05:59:00.891Z,98536.00
2023-09-30T06:01:28.956Z,98520.00
2023-09-30T06:03:56.309Z,98534.00
2023-09-30T06:06:25.191Z,98528.00
2023-09-30T06:08:52.338Z,98544.00
2023-09-30T06:11:20.607Z,98538.00
2023-09-30T06:13:47.588Z,98538.00
2023-09-30T06:16:14.759Z,98526.00
2023-09-30T06:18:41.948Z,98529.00
2023-09-30T06:21:11.338Z,98538.00
2023-09-30T06:23:38.253Z,98523.00
2023-09-30T06:26:05.110Z,98540.00
2023-09-30T06:28:33.902Z,98537.00
2023-09-30T06:31:00.942Z,98526.00
2023-09-30T06:33:30.445Z,98522.00
2023-09-30T06:35:57.803Z,98530.00
2023-09-30T06:38:25.116Z,98544.00
2023-09-30T06:40:51.966Z,98531.00
2023-09-30T06:43:19.021Z,98543.00
2023-09-30T06:45:47.667Z,98547.00
2023-09-30T06:48:14.868Z,98547.00
2023-09-30T06:50:46.940Z,98554.00
2023-09-30T06:53:13.966Z,98558.00
2023-09-30T06:55:41.301Z,98564.00
2023-09-30T06:58:11.710Z,98576.00
2023-09-30T07:00:41.444Z,98564.00
2023-09-30T07:03:10.409Z,98571.00
2023-09-30T07:05:38.302Z,98565.00
2023-09-30T07:08:05.473Z,98568.00
2023-09-30T07:10:32.439Z,98575.00
2023-09-30T07:12:59.438Z,98575.00
2023-09-30T07:15:27.049Z,98576.00
2023-09-30T07:17:54.067Z,98575.00
2023-09-30T07:20:21.597Z,98575.00
2023-09-30T07:23:03.021Z,98586.00
2023-09-30T07:25:35.610Z,98585.00
2023-09-30T07:28:03.273Z,98574.00
2023-09-30T07:30:30.342Z,98561.00
2023-09-30T07:32:57.264Z,98574.00
2023-09-30T07:35:25.246Z,98574.00
2023-09-30T07:37:54.210Z,98588.00
2023-09-30T07:40:22.324Z,98567.00
2023-09-30T07:42:49.552Z,98587.00
2023-09-30T07:45:17.991Z,98578.00
2023-09-30T07:47:47.630Z,98575.00
2023-09-30T07:50:14.690Z,98586.00
2023-09-30T07:52:43.039Z,98583.00
2023-09-30T07:55:11.414Z,98578.00
2023-09-30T07:57:42.099Z,98590.00
2023-09-30T08:00:10.924Z,98597.00
2023-09-30T08:02:38.692Z,98605.00
2023-09-30T08:05:07.820Z,98622.00
2023-09-30T08:07:35.408Z,98628.00
2023-09-30T08:10:07.848Z,98619.00
2023-09-30T08:12:34.972Z,98629.00
2023-09-30T08:15:04.623Z,98623.00
2023-09-30T08:17:32.497Z,98630.00
2023-09-30T08:19:59.402Z,98623.00
2023-09-30T08:22:28.845Z,98635.00
2023-09-30T08:24:56.164Z,98615.00
2023-09-30T08:27:25.024Z,98620.00
2023-09-30T08:29:51.959Z,98629.00
2023-09-30T08:32:19.071Z,98623.00
2023-09-30T08:34:46.122Z,98634.00
2023-09-30T08:37:13.215Z,98643.00
2023-09-30T08:39:44.129Z,98632.00
2023-09-30T08:42:15.317Z,98644.00
2023-09-30T08:44:42.497Z,98639.00
2023-09-30T08:47:10.612Z,98655.00
2023-09-30T08:49:42.831Z,98656.00
2023-09-30T08:52:14.334Z,98655.00
2023-09-30T08:54:41.617Z,98655.00
2023-09-30T08:57:11.303Z,98664.00
2023-09-30T08:59:42.459Z,98650.00
2023-09-30T09:02:12.725Z,98649.00
2023-09-30T09:04:39.779Z,98656.00
2023-09-30T09:07:07.094Z,98662.00
2023-09-30T09:09:34.613Z,98665.00
2023-09-30T09:12:01.628Z,98664.00
2023-09-30T09:14:39.925Z,98652.00
2023-09-30T09:17:09.390Z,98648.00
2023-09-30T09:19:36.364Z,98649.00
2023-09-30T09:22:08.027Z,98655.00
2023-09-30T09:24:40.122Z,98651.00
2023-09-30T09:27:13.154Z,98641.00
2023-09-30T09:29:42.598Z,98624.00
2023-09-30T09:32:19.050Z,98620.00
2023-09-30T09:35:01.519Z,98625.00
2023-09-30T09:37:28.664Z,98613.00
2023-09-30T09:39:58.108Z,98614.00
2023-09-30T09:42:29.886Z,98614.00
2023-09-30T09:45:03.090Z,98603.00
2023-09-30T09:47:33.351Z,98615.00
2023-09-30T09:50:01.525Z,98610.00
2023-09-30T09:52:29.979Z,98612.00
2023-09-30T09:54:58.872Z,98611.00
2023-09-30T09:57:28.582Z,98611.00
2023-09-30T09:59:59.214Z,98618.00
2023-09-30T10:02:29.755Z,98609.00
2023-09-30T10:04:58.125Z,98626.00
2023-09-30T10:07:34.411Z,98609.00
2023-09-30T10:10:06.561Z,98600.00
2023-09-30T10:12:40.204Z,98605.00
2023-09-30T10:15:35.552Z,98604.00
2023-09-30T10:18:14.503Z,98599.00
2023-09-30T10:20:46.371Z,98604.00
2023-09-30T10:23:24.290Z,98610.00
2023-09-30T10:25:58.345Z,98604.00
2023-09-30T10:28:40.747Z,98610.00
2023-09-30T10:31:22.553Z,98613.00
2023-09-30T10:34:01.973Z,98621.00
2023-09-30T10:36:41.030Z,98625.00
2023-09-30T10:39:14.767Z,98631.00
2023-09-30T10:41:48.197Z,98633.00
2023-09-30T10:44:26.152Z,98642.00
2023-09-30T10:46:54.352Z,98635.00
2023-09-30T10:49:24.181Z,98622.00
2023-09-30T10:51:56.506Z,98612.00
2023-09-30T10:54:29.547Z,98607.00
2023-09-30T10:56:57.553Z,98621.00
2023-09-30T10:59:28.772Z,98620.00
2023-09-30T11:01:56.474Z,98624.00
2023-09-30T11:04:23.941Z,98621.00
2023-09-30T11:06:53.625Z,98621.00
2023-09-30T11:09:23.239Z,98624.00
2023-09-30T11:11:55.394Z,98631.00
2023-09-30T11:14:31.046Z,98640.00
2023-09-30T11:17:00.762Z,98634.00
2023-09-30T11:19:35.107Z,98616.00
2023-09-30T11:22:02.304Z,98636.00
2023-09-30T11:24:30.424Z,98623.00
2023-09-30T11:26:57.469Z,98606.00
2023-09-30T11:29:24.562Z,98605.00
2023-09-30T11:31:52.420Z,98599.00
2023-09-30T11:34:20.636Z,98602.00
2023-09-30T11:36:54.538Z,98602.00
2023-09-30T11:39:26.164Z,98596.00
2023-09-30T11:41:53.917Z,98601.00
2023-09-30T11:44:20.996Z,98594.00
2023-09-30T11:47:02.391Z,98596.00
2023-09-30T11:49:39.399Z,98591.00
2023-09-30T11:52:11.008Z,98600.00
2023-09-30T11:54:45.033Z,98591.00
2023-09-30T11:57:21.007Z,98590.00
2023-09-30T11:59:49.023Z,98584.00
2023-09-30T12:02:18.420Z,98582.00
2023-09-30T12:04:50.101Z,98596.00
2023-09-30T12:07:17.308Z,98583.00
2023-09-30T12:09:44.340Z,98575.00
2023-09-30T12:12:12.620Z,98582.00
2023-09-30T12:14:40.625Z,98585.00
2023-09-30T12:17:11.778Z,98588.00
2023-09-30T12:19:39.125Z,98596.00
2023-09-30T12:22:05.979Z,98578.00
2023-09-30T12:24:32.920Z,98592.00
2023-09-30T12:26:59.808Z,98580.00
2023-09-30T12:29:26.921Z,98581.00
2023-09-30T12:31:55.668Z,98582.00
2023-09-30T12:34:27.432Z,98583.00
2023-09-30T12:36:55.530Z,98582.00
2023-09-30T12:39:26.074Z,98565.00
2023-09-30T12:41:53.772Z,98573.00
2023-09-30T12:44:20.877Z,98558.00
2023-09-30T12:46:47.945Z,98580.00
2023-09-30T12:49:15.332Z,98569.00
2023-09-30T12:51:42.751Z,98565.00
2023-09-30T12:54:10.308Z,98556.00
2023-09-30T12:56:37.578Z,98549.00
2023-09-30T12:59:04.778Z,98553.00
2023-09-30T13:01:35.722Z,98548.00
2023-09-30T13:04:03.942Z,98546.00
2023-09-30T13:06:33.446Z,98553.00
2023-09-30T13:09:00.765Z,98551.00
2023-09-30T13:11:28.028Z,98559.00
2023-09-30T13:13:54.847Z,98558.00
2023-09-30T13:16:21.973Z,98555.00
2023-09-30T13:18:49.245Z,98563.00
2023-09-30T13:21:16.974Z,98565.00
2023-09-30T13:23:43.833Z,98563.00
2023-09-30T13:26:10.783Z,98547.00
2023-09-30T13:28:37.879Z,98547.00
2023-09-30T13:31:04.832Z,98541.00
2023-09-30T13:33:31.762Z,98543.00
2023-09-30T13:35:59.508Z,98547.00
2023-09-30T13:38:26.339Z,98543.00
2023-09-30T13:40:53.315Z,98537.00
2023-09-30T13:43:20.463Z,98529.00
2023-09-30T13:45:47.403Z,98506.00
2023-09-30T13:48:14.387Z,98506.00
2023-09-30T13:50:41.342Z,98512.00
2023-09-30T13:53:08.264Z,98520.00
2023-09-30T13:55:39.582Z,98524.00
2023-09-30T13:58:06.616Z,98523.00
2023-09-30T14:00:33.546Z,98524.00
2023-09-30T14:03:01.784Z,98522.00
2023-09-30T14:05:28.982Z,98516.00
2023-09-30T14:07:56.133Z,98504.00
2023-09-30T14:10:23.197Z,98513.00
2023-09-30T14:12:50.456Z,98507.00
2023-09-30T14:15:17.427Z,98504.00
2023-09-30T14:17:46.181Z,98490.00
2023-09-30T14:20:14.245Z,98493.00
2023-09-30T14:22:41.092Z,98501.00
2023-09-30T14:25:09.018Z,98487.00
2023-09-30T14:27:36.057Z,98488.00
2023-09-30T14:30:06.915Z,98488.00
2023-09-30T14:32:36.357Z,98488.00
2023-09-30T14:35:06.543Z,98477.00
2023-09-30T14:37:33.958Z,98500.00
2023-09-30T14:40:00.894Z,98497.00
2023-09-30T14:42:28.957Z,98485.00
2023-09-30T14:44:57.976Z,98491.00
2023-09-30T14:47:24.894Z,98494.00
2023-09-30T14:49:52.070Z,98502.00
2023-09-30T14:52:29.055Z,98504.00
2023-09-30T14:54:56.370Z,98496.00
2023-09-30T14:57:23.630Z,98487.00
2023-09-30T14:59:50.439Z,98501.00
2023-09-30T15:02:17.732Z,98495.00
2023-09-30T15:04:44.729Z,98493.00
2023-09-30T15:07:13.130Z,98493.00
2023-09-30T15:09:43.157Z,98502.00
2023-09-30T15:12:10.520Z,98499.00
2023-09-30T15:14:37.376Z,98497.00
2023-09-30T15:17:04.808Z,98486.00
2023-09-30T15:19:31.752Z,98485.00
2023-09-30T15:21:59.457Z,98486.00
2023-09-30T15:24:26.475Z,98481.00
2023-09-30T15:26:53.417Z,98463.00
2023-09-30T15:29:20.348Z,98456.00
2023-09-30T15:31:47.453Z,98457.00
2023-09-30T15:34:14.644Z,98473.00
2023-09-30T15:36:42.078Z,98485.00
2023-09-30T15:39:09.075Z,98481.00
2023-09-30T15:41:36.063Z,98480.00
2023-09-30T15:44:03.181Z,98481.00
2023-09-30T15:46:30.611Z,98477.00
2023-09-30T15:48:57.523Z,98472.00
2023-09-30T15:51:24.415Z,98474.00
2023-09-30T15:53:51.245Z,98468.00
2023-09-30T15:56:18.109Z,98464.00
2023-09-30T15:58:45.010Z,98470.00
2023-09-30T16:01:14.949Z,98477.00
2023-09-30T16:03:44.011Z,98468.00
2023-09-30T16:06:11.542Z,98476.00
2023-09-30T16:08:38.688Z,98479.00
2023-09-30T16:11:05.784Z,98469.00
2023-09-30T16:13:33.109Z,98479.00
2023-09-30T16:16:01.160Z,98469.00
2023-09-30T16:18:29.505Z,98478.00
2023-09-30T16:20:56.375Z,98464.00
2023-09-30T16:23:23.595Z,98476.00
2023-09-30T16:25:50.407Z,98463.00
2023-09-30T16:28:17.438Z,98471.00
2023-09-30T16:30:45.627Z,98460.00
2023-09-30T16:33:12.783Z,98467.00
2023-09-30T16:35:39.893Z,98486.00
2023-09-30T16:38:06.714Z,98486.00
2023-09-30T16:40:33.783Z,98479.00
2023-09-30T16:43:00.707Z,98489.00
2023-09-30T16:45:27.701Z,98484.00
2023-09-30T16:47:55.144Z,98477.00
2023-09-30T16:50:23.112Z,98478.00
2023-09-30T16:52:50.292Z,98478.00
2023-09-30T16:55:17.664Z,98481.00
2023-09-30T16:57:44.678Z,98492.00
2023-09-30T17:00:12.564Z,98484.00
2023-09-30T17:02:39.595Z,98481.00
2023-09-30T17:05:07.506Z,98477.00
2023-09-30T17:07:34.564Z,98472.00
2023-09-30T17:10:01.764Z,98469.00
2023-09-30T17:12:28.685Z,98479.00
2023-09-30T17:14:56.439Z,98478.00
2023-09-30T17:17:23.524Z,98476.00
2023-09-30T17:19:50.345Z,98484.00
2023-09-30T17:22:19.024Z,98490.00
2023-09-30T17:24:46.326Z,98494.00
2023-09-30T17:27:13.259Z,98489.00
2023-09-30T17:29:40.524Z,98491.00
2023-09-30T17:32:08.381Z,98484.00
2023-09-30T17:34:39.033Z,98500.00
2023-09-30T17:37:07.025Z,98504.00
2023-09-30T17:39:34.389Z,98506.00
2023-09-30T17:42:01.448Z,98504.00
2023-09-30T17:44:28.783Z,98509.00
2023-09-30T17:46:55.905Z,98511.00
2023-09-30T17:49:23.061Z,98515.00
2023-09-30T17:51:50.130Z,98513.00
2023-09-30T17:54:17.557Z,98504.00
2023-09-30T17:56:44.512Z,98503.00
2023-09-30T17:59:13.173Z,98494.00
2023-09-30T18:01:40.521Z,98512.00
2023-09-30T18:04:08.538Z,98508.00
2023-09-30T18:06:35.641Z,98515.00
2023-09-30T18:09:03.192Z,98512.00
2023-09-30T18:11:30.760Z,98517.00
2023-09-30T18:13:58.119Z,98523.00
2023-09-30T18:16:25.708Z,98521.00
2023-09-30T18:18:52.821Z,98512.00
2023-09-30T18:21:20.597Z,98513.00
2023-09-30T18:23:47.703Z,98502.00
2023-09-30T18:26:14.612Z,98503.00
2023-09-30T18:28:41.484Z,98505.00
2023-09-30T18:31:08.368Z,98503.00
2023-09-30T18:33:35.254Z,98501.00
2023-09-30T18:36:02.443Z,98485.00
2023-09-30T18:38:29.508Z,98497.00
2023-09-30T18:40:56.558Z,98498.00
2023-09-30T18:43:25.750Z,98505.00
2023-09-30T18:45:55.154Z,98512.00
2023-09-30T18:48:22.085Z,98507.00
2023-09-30T18:50:54.494Z,98508.00
2023-09-30T18:53:22.486Z,98511.00
2023-09-30T18:55:49.402Z,98505.00
2023-09-30T18:58:17.475Z,98502.00
2023-09-30T19:00:48.615Z,98493.00
2023-09-30T19:03:17.763Z,98489.00
2023-09-30T19:05:44.851Z,98488.00
2023-09-30T19:08:11.784Z,98483.00
2023-09-30T19:10:38.726Z,98483.00
2023-09-30T19:13:06.173Z,98487.00
2023-09-30T19:15:33.353Z,98484.00
2023-09-30T19:18:00.927Z,98484.00
2023-09-30T19:20:27.872Z,98479.00
2023-09-30T19:22:55.495Z,98477.00
2023-09-30T19:25:24.675Z,98490.00
2023-09-30T19:27:52.356Z,98470.00
2023-09-30T19:30:20.576Z,98496.00
2023-09-30T19:32:47.589Z,98494.00
2023-09-30T19:35:15.914Z,98495.00
2023-09-30T19:37:43.084Z,98504.00
2023-09-30T19:40:12.588Z,98503.00
2023-09-30T19:42:40.973Z,98497.00
2023-09-30T19:45:08.637Z,98497.00
2023-09-30T19:47:35.608Z,98499.00
2023-09-30T19:50:02.757Z,98498.00
2023-09-30T19:52:31.284Z,98510.00
2023-09-30T19:54:58.714Z,98502.00
2023-09-30T19:57:26.297Z,98511.00
2023-09-30T19:59:53.184Z,98503.00
2023-09-30T20:02:21.680Z,98500.00
2023-09-30T20:04:49.547Z,98506.00
2023-09-30T20:07:17.364Z,98492.00
2023-09-30T20:09:45.156Z,98502.00
2023-09-30T20:12:13.630Z,98495.00
2023-09-30T20:14:42.178Z,98499.00
2023-09-30T20:17:09.274Z,98504.00
2023-09-30T20:19:36.172Z,98501.00
2023-09-30T20:22:06.413Z,98502.00
2023-09-30T20:24:33.537Z,98497.00
2023-09-30T20:27:01.098Z,98488.00
2023-09-30T20:29:30.101Z,98494.00
2023-09-30T20:31:57.405Z,98497.00
2023-09-30T20:34:24.646Z,98475.00
2023-09-30T20:36:53.096Z,98484.00
2023-09-30T20:39:21.399Z,98493.00
2023-09-30T20:41:51.494Z,98481.00
2023-09-30T20:44:18.987Z,98486.00
2023-09-30T20:46:48.449Z,98489.00
2023-09-30T20:49:18.796Z,98483.00
2023-09-30T20:51:45.727Z,98475.00
2023-09-30T20:54:12.857Z,98476.00
2023-09-30T20:56:40.528Z,98466.00
2023-09-30T20:59:07.422Z,98464.00
2023-09-30T21:01:35.140Z,98464.00
2023-09-30T21:04:02.269Z,98450.00
2023-09-30T21:06:30.218Z,98455.00
2023-09-30T21:08:57.875Z,98452.00
2023-09-30T21:11:24.934Z,98471.00
2023-09-30T21:13:52.768Z,98460.00
2023-09-30T21:18:46.922Z,98458.00
2023-09-30T21:21:14.270Z,98465.00
2023-09-30T21:23:41.283Z,98476.00
2023-09-30T21:26:15.503Z,98481.00
2023-09-30T21:28:45.152Z,98497.00
2023-09-30T21:31:19.825Z,98484.00
2023-09-30T21:33:47.870Z,98480.00
2023-09-30T21:36:19.453Z,98469.00
2023-09-30T21:38:48.451Z,98482.00
2023-09-30T21:41:17.743Z,98474.00
2023-09-30T21:43:44.826Z,98472.00
2023-09-30T21:46:13.253Z,98479.00
2023-09-30T21:48:41.458Z,98490.00
2023-09-30T21:51:09.128Z,98479.00
2023-09-30T21:53:36.983Z,98478.00
2023-09-30T21:56:04.403Z,98482.00
2023-09-30T21:58:33.058Z,98488.00
2023-09-30T22:01:00.224Z,98491.00
2023-09-30T22:03:29.001Z,98503.00
2023-09-30T22:05:56.781Z,98485.00
2023-09-30T22:08:25.811Z,98505.00
2023-09-30T22:10:56.299Z,98478.00
2023-09-30T22:13:27.914Z,98489.00
2023-09-30T22:15:55.201Z,98485.00
2023-09-30T22:18:23.999Z,98490.00
2023-09-30T22:20:53.393Z,98476.00
2023-09-30T22:23:20.717Z,98474.00
2023-09-30T22:25:49.604Z,98465.00
2023-09-30T22:28:17.058Z,98477.00
2023-09-30T22:30:44.203Z,98488.00
2023-09-30T22:33:11.389Z,98488.00
2023-09-30T22:35:41.744Z,98488.00
2023-09-30T22:38:09.292Z,98475.00
2023-09-30T22:40:36.854Z,98480.00
2023-09-30T22:43:06.236Z,98475.00
2023-09-30T22:45:35.447Z,98474.00
2023-09-30T22:48:02.787Z,98477.00
2023-09-30T22:50:30.042Z,98498.00
2023-09-30T22:52:56.902Z,98489.00
2023-09-30T22:55:25.021Z,98474.00
2023-09-30T22:57:56.843Z,98476.00
2023-09-30T23:00:29.000Z,98471.00
2023-09-30T23:02:56.537Z,98470.00
2023-09-30T23:05:26.131Z,98470.00
2023-09-30T23:07:53.228Z,98469.00
2023-09-30T23:10:20.466Z,98476.00
2023-09-30T23:12:47.563Z,98474.00
2023-09-30T23:15:20.475Z,98464.00
2023-09-30T23:17:49.717Z,98463.00
2023-09-30T23:20:22.500Z,98460.00
2023-09-30T23:22:53.366Z,98462.00
2023-09-30T23:25:28.949Z,98471.00
2023-09-30T23:27:58.592Z,98467.00
2023-09-30T23:30:26.954Z,98470.00
2023-09-30T23:32:54.661Z,98463.00
2023-09-30T23:35:26.130Z,98463.00
2023-09-30T23:38:03.926Z,98455.00
2023-09-30T23:40:37.309Z,98462.00
2023-09-30T23:43:05.351Z,98467.00
2023-09-30T23:45:35.707Z,98462.00
2023-09-30T23:48:07.986Z,98464.00
2023-09-30T23:50:36.102Z,98449.00
2023-09-30T23:53:06.350Z,98441.00
2023-09-30T23:55:37.208Z,98454.00
2023-09-30T23:58:06.103Z,98448.00
